Barnesville, Georgia
Current Conditions -  °F | °C
As of 3:55 PM on Thursday 27 Nov 2014 (Local Time) from KOPN Reporting Station
Overcast Overcast  
Wind Chill: 10°   Ceiling: 4800
Heat Index: 10°   Visibility: 10mi
Dew Point:   Wind: 9mph
Humidity: 50%   Direction: 330°NNW
Pressure: 30.3"   Gusts: NA
Location:  33.05°N, 84.16°W
Report Text: KOPN 272055Z AUTO 33008KT 10SM OVC048 10/00 A3030 RMK AO2
Loading
Personal Weather Stations






























Interactive Weather Map New forecast layout! Learn more

10-Day Weather Forecast

Advertisements
Track Severe Weather on mobile